sensor_id;sensor_type;location;lat;lon;timestamp;pressure;altitude;pressure_sealevel;temperature;humidity
54850;BME280;47660;51.334;12.396;2023-06-14T00:02:16;100227.19;;;22.57;41.72
54850;BME280;47660;51.334;12.396;2023-06-14T00:04:41;100220.19;;;21.99;42.60
54850;BME280;47660;51.334;12.396;2023-06-14T00:07:08;100221.69;;;22.02;42.81
54850;BME280;47660;51.334;12.396;2023-06-14T00:09:34;100217.28;;;22.09;42.83
54850;BME280;47660;51.334;12.396;2023-06-14T00:12:00;100221.78;;;21.85;43.24
54850;BME280;47660;51.334;12.396;2023-06-14T00:14:28;100224.84;;;21.82;43.36
54850;BME280;47660;51.334;12.396;2023-06-14T00:16:53;100230.06;;;21.84;43.36
54850;BME280;47660;51.334;12.396;2023-06-14T00:19:24;100226.50;;;21.91;42.97
54850;BME280;47660;51.334;12.396;2023-06-14T00:21:49;100226.00;;;21.88;43.33
54850;BME280;47660;51.334;12.396;2023-06-14T00:24:17;100228.34;;;22.31;42.80
54850;BME280;47660;51.334;12.396;2023-06-14T00:26:43;100228.38;;;22.22;42.77
54850;BME280;47660;51.334;12.396;2023-06-14T00:29:10;100226.53;;;21.75;43.74
54850;BME280;47660;51.334;12.396;2023-06-14T00:31:36;100226.19;;;21.78;43.84
54850;BME280;47660;51.334;12.396;2023-06-14T00:34:01;100220.72;;;21.94;43.79
54850;BME280;47660;51.334;12.396;2023-06-14T00:36:27;100221.56;;;21.95;43.31
54850;BME280;47660;51.334;12.396;2023-06-14T00:38:52;100224.91;;;22.05;43.43
54850;BME280;47660;51.334;12.396;2023-06-14T00:41:20;100222.81;;;21.84;43.90
54850;BME280;47660;51.334;12.396;2023-06-14T00:43:46;100210.44;;;21.90;43.99
54850;BME280;47660;51.334;12.396;2023-06-14T00:46:11;100220.31;;;22.06;43.51
54850;BME280;47660;51.334;12.396;2023-06-14T00:48:37;100223.50;;;22.49;42.75
54850;BME280;47660;51.334;12.396;2023-06-14T00:51:03;100219.44;;;21.74;44.03
54850;BME280;47660;51.334;12.396;2023-06-14T00:53:32;100220.00;;;22.01;44.01
54850;BME280;47660;51.334;12.396;2023-06-14T00:56:03;100218.22;;;21.85;44.43
54850;BME280;47660;51.334;12.396;2023-06-14T00:58:29;100219.34;;;21.34;45.38
54850;BME280;47660;51.334;12.396;2023-06-14T01:00:54;100222.19;;;21.49;45.05
54850;BME280;47660;51.334;12.396;2023-06-14T01:03:20;100218.50;;;21.42;45.00
54850;BME280;47660;51.334;12.396;2023-06-14T01:05:50;100218.13;;;21.45;45.45
54850;BME280;47660;51.334;12.396;2023-06-14T01:10:56;100219.47;;;21.49;45.73
54850;BME280;47660;51.334;12.396;2023-06-14T01:13:27;100222.38;;;22.04;44.87
54850;BME280;47660;51.334;12.396;2023-06-14T01:15:57;100225.97;;;21.96;45.15
54850;BME280;47660;51.334;12.396;2023-06-14T01:18:22;100224.03;;;21.48;45.69
54850;BME280;47660;51.334;12.396;2023-06-14T01:20:51;100228.91;;;21.78;45.16
54850;BME280;47660;51.334;12.396;2023-06-14T01:23:21;100219.00;;;22.02;44.89
54850;BME280;47660;51.334;12.396;2023-06-14T01:25:48;100227.84;;;22.27;44.43
54850;BME280;47660;51.334;12.396;2023-06-14T01:28:18;100222.69;;;22.09;44.20
54850;BME280;47660;51.334;12.396;2023-06-14T01:30:48;100225.16;;;21.87;45.37
54850;BME280;47660;51.334;12.396;2023-06-14T01:33:16;100223.13;;;21.89;44.87
54850;BME280;47660;51.334;12.396;2023-06-14T01:35:44;100226.91;;;21.63;46.23
54850;BME280;47660;51.334;12.396;2023-06-14T01:38:13;100224.19;;;21.72;45.18
54850;BME280;47660;51.334;12.396;2023-06-14T01:40:39;100227.22;;;21.77;45.67
54850;BME280;47660;51.334;12.396;2023-06-14T01:43:09;100217.47;;;22.07;45.29
54850;BME280;47660;51.334;12.396;2023-06-14T01:45:36;100221.72;;;21.93;45.25
54850;BME280;47660;51.334;12.396;2023-06-14T01:48:02;100215.09;;;22.04;45.11
54850;BME280;47660;51.334;12.396;2023-06-14T01:50:31;100216.03;;;21.88;45.68
54850;BME280;47660;51.334;12.396;2023-06-14T01:52:57;100220.00;;;22.01;44.68
54850;BME280;47660;51.334;12.396;2023-06-14T01:55:22;100225.22;;;21.62;45.52
54850;BME280;47660;51.334;12.396;2023-06-14T01:57:50;100226.28;;;21.36;45.91
54850;BME280;47660;51.334;12.396;2023-06-14T02:00:15;100224.72;;;21.50;46.24
54850;BME280;47660;51.334;12.396;2023-06-14T02:02:43;100220.13;;;21.59;46.00
54850;BME280;47660;51.334;12.396;2023-06-14T02:05:11;100229.50;;;21.07;46.86
54850;BME280;47660;51.334;12.396;2023-06-14T02:07:36;100234.06;;;21.06;47.12
54850;BME280;47660;51.334;12.396;2023-06-14T02:10:03;100230.69;;;21.21;47.36
54850;BME280;47660;51.334;12.396;2023-06-14T02:12:28;100225.06;;;21.39;46.63
54850;BME280;47660;51.334;12.396;2023-06-14T02:14:54;100227.59;;;21.49;46.17
54850;BME280;47660;51.334;12.396;2023-06-14T02:17:20;100232.69;;;21.27;46.97
54850;BME280;47660;51.334;12.396;2023-06-14T02:19:48;100227.97;;;21.29;46.60
54850;BME280;47660;51.334;12.396;2023-06-14T02:22:14;100223.91;;;21.33;46.93
54850;BME280;47660;51.334;12.396;2023-06-14T02:24:42;100233.91;;;21.16;46.93
54850;BME280;47660;51.334;12.396;2023-06-14T02:27:08;100231.84;;;21.35;46.67
54850;BME280;47660;51.334;12.396;2023-06-14T02:29:36;100230.97;;;21.51;46.47
54850;BME280;47660;51.334;12.396;2023-06-14T02:32:02;100242.84;;;21.17;47.42
54850;BME280;47660;51.334;12.396;2023-06-14T02:34:28;100237.44;;;21.17;47.25
54850;BME280;47660;51.334;12.396;2023-06-14T02:36:56;100241.47;;;21.37;46.68
54850;BME280;47660;51.334;12.396;2023-06-14T02:39:22;100245.00;;;21.30;46.99
54850;BME280;47660;51.334;12.396;2023-06-14T02:41:49;100251.44;;;20.79;48.03
54850;BME280;47660;51.334;12.396;2023-06-14T02:44:17;100245.47;;;21.58;47.22
54850;BME280;47660;51.334;12.396;2023-06-14T02:46:43;100252.28;;;21.04;47.43
54850;BME280;47660;51.334;12.396;2023-06-14T02:49:11;100252.66;;;20.93;47.88
54850;BME280;47660;51.334;12.396;2023-06-14T02:51:37;100250.59;;;20.78;47.97
54850;BME280;47660;51.334;12.396;2023-06-14T02:54:02;100253.31;;;21.36;46.76
54850;BME280;47660;51.334;12.396;2023-06-14T02:56:28;100259.22;;;21.07;47.96
54850;BME280;47660;51.334;12.396;2023-06-14T02:58:54;100250.03;;;20.75;48.64
54850;BME280;47660;51.334;12.396;2023-06-14T03:01:20;100254.28;;;21.44;47.37
54850;BME280;47660;51.334;12.396;2023-06-14T03:03:49;100249.59;;;21.29;47.01
54850;BME280;47660;51.334;12.396;2023-06-14T03:06:16;100259.56;;;20.96;47.88
54850;BME280;47660;51.334;12.396;2023-06-14T03:08:42;100249.75;;;21.44;47.11
54850;BME280;47660;51.334;12.396;2023-06-14T03:11:09;100257.53;;;21.31;47.13
54850;BME280;47660;51.334;12.396;2023-06-14T03:13:35;100255.66;;;21.06;48.60
54850;BME280;47660;51.334;12.396;2023-06-14T03:16:00;100254.00;;;21.22;47.82
54850;BME280;47660;51.334;12.396;2023-06-14T03:18:31;100256.78;;;21.78;46.84
54850;BME280;47660;51.334;12.396;2023-06-14T03:21:01;100264.13;;;21.20;47.85
54850;BME280;47660;51.334;12.396;2023-06-14T03:23:33;100261.72;;;21.58;47.46
54850;BME280;47660;51.334;12.396;2023-06-14T03:25:59;100264.09;;;20.78;48.82
54850;BME280;47660;51.334;12.396;2023-06-14T03:28:24;100267.50;;;21.14;47.90
54850;BME280;47660;51.334;12.396;2023-06-14T03:30:51;100269.31;;;20.80;48.85
54850;BME280;47660;51.334;12.396;2023-06-14T03:33:16;100273.84;;;20.12;50.68
54850;BME280;47660;51.334;12.396;2023-06-14T03:35:44;100275.28;;;21.17;48.98
54850;BME280;47660;51.334;12.396;2023-06-14T03:38:10;100286.75;;;20.00;50.99
54850;BME280;47660;51.334;12.396;2023-06-14T03:40:35;100284.69;;;20.80;48.93
54850;BME280;47660;51.334;12.396;2023-06-14T03:43:04;100281.53;;;20.41;50.12
54850;BME280;47660;51.334;12.396;2023-06-14T03:45:29;100284.81;;;20.61;49.68
54850;BME280;47660;51.334;12.396;2023-06-14T03:47:57;100286.41;;;21.05;48.31
54850;BME280;47660;51.334;12.396;2023-06-14T03:50:23;100287.84;;;20.67;49.16
54850;BME280;47660;51.334;12.396;2023-06-14T03:52:52;100282.72;;;21.40;47.96
54850;BME280;47660;51.334;12.396;2023-06-14T03:55:20;100287.09;;;21.41;48.46
54850;BME280;47660;51.334;12.396;2023-06-14T03:57:53;100291.47;;;21.08;48.15
54850;BME280;47660;51.334;12.396;2023-06-14T04:00:21;100303.84;;;21.19;49.02
54850;BME280;47660;51.334;12.396;2023-06-14T04:02:46;100298.41;;;21.03;48.80
54850;BME280;47660;51.334;12.396;2023-06-14T04:05:14;100302.97;;;21.19;48.42
54850;BME280;47660;51.334;12.396;2023-06-14T04:07:42;100300.28;;;21.19;48.70
54850;BME280;47660;51.334;12.396;2023-06-14T04:10:16;100300.59;;;21.49;48.28
54850;BME280;47660;51.334;12.396;2023-06-14T04:12:42;100300.13;;;21.12;49.15
54850;BME280;47660;51.334;12.396;2023-06-14T04:15:08;100306.69;;;21.18;49.01
54850;BME280;47660;51.334;12.396;2023-06-14T04:17:34;100302.63;;;21.14;49.24
54850;BME280;47660;51.334;12.396;2023-06-14T04:20:03;100301.09;;;21.28;49.09
54850;BME280;47660;51.334;12.396;2023-06-14T04:22:30;100301.97;;;21.28;48.75
54850;BME280;47660;51.334;12.396;2023-06-14T04:24:59;100301.94;;;21.53;49.00
54850;BME280;47660;51.334;12.396;2023-06-14T04:27:27;100305.81;;;21.75;48.42
54850;BME280;47660;51.334;12.396;2023-06-14T04:29:53;100310.41;;;21.33;49.04
54850;BME280;47660;51.334;12.396;2023-06-14T04:32:27;100307.31;;;21.94;48.16
54850;BME280;47660;51.334;12.396;2023-06-14T04:34:58;100305.44;;;21.95;47.86
54850;BME280;47660;51.334;12.396;2023-06-14T04:37:24;100314.66;;;22.25;47.23
54850;BME280;47660;51.334;12.396;2023-06-14T04:39:54;100305.00;;;22.23;47.14
54850;BME280;47660;51.334;12.396;2023-06-14T04:42:23;100302.25;;;22.48;46.32
54850;BME280;47660;51.334;12.396;2023-06-14T04:44:56;100308.19;;;22.35;46.77
54850;BME280;47660;51.334;12.396;2023-06-14T04:47:22;100302.72;;;22.43;46.68
54850;BME280;47660;51.334;12.396;2023-06-14T04:49:58;100303.66;;;22.27;46.65
54850;BME280;47660;51.334;12.396;2023-06-14T04:52:25;100309.06;;;22.27;46.81
54850;BME280;47660;51.334;12.396;2023-06-14T04:54:52;100298.41;;;22.89;45.69
54850;BME280;47660;51.334;12.396;2023-06-14T04:57:21;100306.81;;;21.99;47.41
54850;BME280;47660;51.334;12.396;2023-06-14T04:59:48;100307.78;;;22.86;45.92
54850;BME280;47660;51.334;12.396;2023-06-14T05:02:13;100305.78;;;22.48;46.66
54850;BME280;47660;51.334;12.396;2023-06-14T05:04:41;100310.75;;;21.80;48.25
54850;BME280;47660;51.334;12.396;2023-06-14T05:07:09;100303.66;;;22.19;48.39
54850;BME280;47660;51.334;12.396;2023-06-14T05:09:36;100311.59;;;22.29;47.52
54850;BME280;47660;51.334;12.396;2023-06-14T05:12:02;100316.84;;;22.30;47.64
54850;BME280;47660;51.334;12.396;2023-06-14T05:14:27;100310.47;;;22.15;47.54
54850;BME280;47660;51.334;12.396;2023-06-14T05:16:53;100312.59;;;21.71;49.02
54850;BME280;47660;51.334;12.396;2023-06-14T05:19:19;100314.97;;;21.49;49.54
54850;BME280;47660;51.334;12.396;2023-06-14T05:21:46;100324.28;;;22.28;48.31
54850;BME280;47660;51.334;12.396;2023-06-14T05:24:13;100317.41;;;22.89;46.48
54850;BME280;47660;51.334;12.396;2023-06-14T05:26:41;100322.91;;;21.51;49.48
54850;BME280;47660;51.334;12.396;2023-06-14T05:29:06;100318.75;;;22.13;48.42
54850;BME280;47660;51.334;12.396;2023-06-14T05:31:32;100318.00;;;22.36;47.58
54850;BME280;47660;51.334;12.396;2023-06-14T05:34:00;100324.94;;;22.78;47.38
54850;BME280;47660;51.334;12.396;2023-06-14T05:36:25;100330.75;;;22.67;47.29
54850;BME280;47660;51.334;12.396;2023-06-14T05:38:55;100328.44;;;22.87;47.11
54850;BME280;47660;51.334;12.396;2023-06-14T05:41:28;100325.22;;;23.92;44.90
54850;BME280;47660;51.334;12.396;2023-06-14T05:43:55;100327.34;;;22.96;46.44
54850;BME280;47660;51.334;12.396;2023-06-14T05:46:21;100332.84;;;23.11;45.63
54850;BME280;47660;51.334;12.396;2023-06-14T05:48:50;100327.25;;;23.36;45.34
54850;BME280;47660;51.334;12.396;2023-06-14T05:51:16;100324.38;;;23.38;45.67
54850;BME280;47660;51.334;12.396;2023-06-14T05:53:48;100334.47;;;23.44;45.64
54850;BME280;47660;51.334;12.396;2023-06-14T05:56:15;100337.66;;;23.01;46.20
54850;BME280;47660;51.334;12.396;2023-06-14T05:58:41;100344.91;;;23.09;46.10
54850;BME280;47660;51.334;12.396;2023-06-14T06:01:06;100348.16;;;23.27;45.81
54850;BME280;47660;51.334;12.396;2023-06-14T06:03:32;100348.38;;;22.63;46.65
54850;BME280;47660;51.334;12.396;2023-06-14T06:06:01;100352.28;;;21.95;48.74
54850;BME280;47660;51.334;12.396;2023-06-14T06:08:28;100348.09;;;23.12;46.02
54850;BME280;47660;51.334;12.396;2023-06-14T06:10:53;100366.66;;;22.61;46.80
54850;BME280;47660;51.334;12.396;2023-06-14T06:13:19;100359.13;;;22.48;47.22
54850;BME280;47660;51.334;12.396;2023-06-14T06:15:45;100365.41;;;22.32;47.95
54850;BME280;47660;51.334;12.396;2023-06-14T06:18:11;100362.66;;;22.40;48.17
54850;BME280;47660;51.334;12.396;2023-06-14T06:20:36;100361.00;;;23.34;45.88
54850;BME280;47660;51.334;12.396;2023-06-14T06:23:02;100361.63;;;22.89;47.08
54850;BME280;47660;51.334;12.396;2023-06-14T06:25:28;100364.31;;;22.89;46.84
54850;BME280;47660;51.334;12.396;2023-06-14T06:27:54;100364.03;;;23.39;45.81
54850;BME280;47660;51.334;12.396;2023-06-14T06:30:22;100357.03;;;23.83;44.84
54850;BME280;47660;51.334;12.396;2023-06-14T06:32:48;100360.44;;;23.62;45.29
54850;BME280;47660;51.334;12.396;2023-06-14T06:35:14;100370.78;;;23.81;44.77
54850;BME280;47660;51.334;12.396;2023-06-14T06:37:42;100364.72;;;24.69;43.28
54850;BME280;47660;51.334;12.396;2023-06-14T06:40:08;100366.25;;;24.27;43.93
54850;BME280;47660;51.334;12.396;2023-06-14T06:42:34;100364.47;;;24.49;43.49
54850;BME280;47660;51.334;12.396;2023-06-14T06:45:00;100375.50;;;24.02;44.21
54850;BME280;47660;51.334;12.396;2023-06-14T06:47:25;100364.09;;;24.37;43.24
54850;BME280;47660;51.334;12.396;2023-06-14T06:49:51;100366.22;;;24.87;42.85
54850;BME280;47660;51.334;12.396;2023-06-14T06:52:19;100375.63;;;24.39;43.38
54850;BME280;47660;51.334;12.396;2023-06-14T06:54:47;100377.50;;;24.09;44.24
54850;BME280;47660;51.334;12.396;2023-06-14T06:57:14;100370.38;;;24.53;43.55
54850;BME280;47660;51.334;12.396;2023-06-14T06:59:39;100370.69;;;24.95;42.69
54850;BME280;47660;51.334;12.396;2023-06-14T07:02:05;100366.59;;;25.05;42.52
54850;BME280;47660;51.334;12.396;2023-06-14T07:04:35;100369.09;;;25.65;41.40
54850;BME280;47660;51.334;12.396;2023-06-14T07:07:01;100370.38;;;25.26;41.57
54850;BME280;47660;51.334;12.396;2023-06-14T07:09:53;100365.38;;;25.45;41.27
54850;BME280;47660;51.334;12.396;2023-06-14T07:12:20;100367.06;;;25.31;41.39
54850;BME280;47660;51.334;12.396;2023-06-14T07:14:49;100377.25;;;24.85;42.46
54850;BME280;47660;51.334;12.396;2023-06-14T07:17:16;100357.38;;;25.21;41.94
54850;BME280;47660;51.334;12.396;2023-06-14T07:19:44;100368.16;;;25.51;40.73
54850;BME280;47660;51.334;12.396;2023-06-14T07:22:10;100368.03;;;25.88;40.09
54850;BME280;47660;51.334;12.396;2023-06-14T07:24:38;100365.66;;;26.42;39.68
54850;BME280;47660;51.334;12.396;2023-06-14T07:27:05;100367.50;;;26.06;39.15
54850;BME280;47660;51.334;12.396;2023-06-14T07:29:33;100376.38;;;26.15;39.61
54850;BME280;47660;51.334;12.396;2023-06-14T07:32:01;100375.97;;;27.02;37.47
54850;BME280;47660;51.334;12.396;2023-06-14T07:34:26;100375.97;;;26.53;38.25
54850;BME280;47660;51.334;12.396;2023-06-14T07:36:54;100381.31;;;26.33;38.89
54850;BME280;47660;51.334;12.396;2023-06-14T07:39:20;100382.75;;;26.71;37.96
54850;BME280;47660;51.334;12.396;2023-06-14T07:41:46;100386.88;;;26.53;38.10
54850;BME280;47660;51.334;12.396;2023-06-14T07:44:11;100381.69;;;26.23;38.15
54850;BME280;47660;51.334;12.396;2023-06-14T07:46:37;100381.19;;;26.13;38.73
54850;BME280;47660;51.334;12.396;2023-06-14T07:49:03;100377.41;;;26.84;38.02
54850;BME280;47660;51.334;12.396;2023-06-14T07:51:28;100370.00;;;26.78;38.18
54850;BME280;47660;51.334;12.396;2023-06-14T07:53:54;100375.75;;;26.48;37.67
54850;BME280;47660;51.334;12.396;2023-06-14T07:56:22;100382.72;;;26.22;38.11
54850;BME280;47660;51.334;12.396;2023-06-14T07:58:48;100381.06;;;26.63;37.24
54850;BME280;47660;51.334;12.396;2023-06-14T08:01:14;100386.34;;;26.01;38.11
54850;BME280;47660;51.334;12.396;2023-06-14T08:03:44;100384.94;;;26.89;37.41
54850;BME280;47660;51.334;12.396;2023-06-14T08:06:10;100382.19;;;26.40;37.62
54850;BME280;47660;51.334;12.396;2023-06-14T08:08:35;100379.78;;;27.14;37.15
54850;BME280;47660;51.334;12.396;2023-06-14T08:11:03;100382.75;;;27.40;36.51
54850;BME280;47660;51.334;12.396;2023-06-14T08:13:29;100390.44;;;27.03;36.07
54850;BME280;47660;51.334;12.396;2023-06-14T08:15:56;100389.34;;;26.83;36.65
54850;BME280;47660;51.334;12.396;2023-06-14T08:18:23;100382.91;;;27.11;35.73
54850;BME280;47660;51.334;12.396;2023-06-14T08:20:48;100387.66;;;26.82;36.34
54850;BME280;47660;51.334;12.396;2023-06-14T08:23:15;100382.31;;;27.23;35.93
54850;BME280;47660;51.334;12.396;2023-06-14T08:25:44;100382.63;;;26.86;36.39
54850;BME280;47660;51.334;12.396;2023-06-14T08:28:10;100387.75;;;27.16;36.19
54850;BME280;47660;51.334;12.396;2023-06-14T08:30:35;100389.03;;;27.27;35.79
54850;BME280;47660;51.334;12.396;2023-06-14T08:33:01;100391.56;;;26.73;36.51
54850;BME280;47660;51.334;12.396;2023-06-14T08:35:26;100388.25;;;26.36;36.32
54850;BME280;47660;51.334;12.396;2023-06-14T08:37:54;100383.53;;;27.13;35.96
54850;BME280;47660;51.334;12.396;2023-06-14T08:40:22;100384.41;;;27.21;36.05
54850;BME280;47660;51.334;12.396;2023-06-14T08:42:53;100380.84;;;27.34;35.50
54850;BME280;47660;51.334;12.396;2023-06-14T08:45:22;100375.84;;;27.51;35.10
54850;BME280;47660;51.334;12.396;2023-06-14T08:47:49;100386.16;;;27.55;34.93
54850;BME280;47660;51.334;12.396;2023-06-14T08:50:23;100381.63;;;27.01;35.28
54850;BME280;47660;51.334;12.396;2023-06-14T08:52:56;100370.56;;;28.23;33.76
54850;BME280;47660;51.334;12.396;2023-06-14T08:55:23;100370.41;;;27.51;34.79
54850;BME280;47660;51.334;12.396;2023-06-14T08:57:55;100367.94;;;28.55;33.92
54850;BME280;47660;51.334;12.396;2023-06-14T09:00:25;100381.94;;;28.00;34.35
54850;BME280;47660;51.334;12.396;2023-06-14T09:02:52;100376.47;;;28.72;32.79
54850;BME280;47660;51.334;12.396;2023-06-14T09:05:24;100378.75;;;28.37;33.27
54850;BME280;47660;51.334;12.396;2023-06-14T09:07:50;100384.03;;;27.98;32.34
54850;BME280;47660;51.334;12.396;2023-06-14T09:10:20;100371.44;;;28.69;31.71
54850;BME280;47660;51.334;12.396;2023-06-14T09:12:46;100388.69;;;27.70;32.78
54850;BME280;47660;51.334;12.396;2023-06-14T09:15:14;100385.22;;;28.42;32.59
54850;BME280;47660;51.334;12.396;2023-06-14T09:17:40;100396.59;;;28.39;32.01
54850;BME280;47660;51.334;12.396;2023-06-14T09:20:08;100402.09;;;28.06;32.33
54850;BME280;47660;51.334;12.396;2023-06-14T09:22:42;100389.31;;;27.86;32.53
54850;BME280;47660;51.334;12.396;2023-06-14T09:25:08;100388.47;;;27.72;31.90
54850;BME280;47660;51.334;12.396;2023-06-14T09:27:39;100396.44;;;28.07;32.12
54850;BME280;47660;51.334;12.396;2023-06-14T09:30:09;100377.53;;;27.92;31.84
54850;BME280;47660;51.334;12.396;2023-06-14T09:32:38;100399.97;;;29.00;30.52
54850;BME280;47660;51.334;12.396;2023-06-14T09:35:06;100386.53;;;27.99;31.78
54850;BME280;47660;51.334;12.396;2023-06-14T09:37:34;100383.91;;;29.93;30.13
54850;BME280;47660;51.334;12.396;2023-06-14T09:40:01;100393.72;;;28.86;31.13
54850;BME280;47660;51.334;12.396;2023-06-14T09:42:26;100395.78;;;28.39;30.82
54850;BME280;47660;51.334;12.396;2023-06-14T09:44:55;100379.00;;;27.81;31.72
54850;BME280;47660;51.334;12.396;2023-06-14T09:47:21;100387.19;;;28.15;30.73
54850;BME280;47660;51.334;12.396;2023-06-14T09:49:48;100383.94;;;28.45;30.93
54850;BME280;47660;51.334;12.396;2023-06-14T09:52:16;100384.09;;;28.64;30.93
54850;BME280;47660;51.334;12.396;2023-06-14T09:54:43;100382.97;;;28.06;31.25
54850;BME280;47660;51.334;12.396;2023-06-14T09:57:14;100381.59;;;28.62;30.43
54850;BME280;47660;51.334;12.396;2023-06-14T09:59:42;100383.78;;;28.92;30.40
54850;BME280;47660;51.334;12.396;2023-06-14T10:02:35;100377.00;;;29.01;29.76
54850;BME280;47660;51.334;12.396;2023-06-14T10:05:06;100382.59;;;27.82;31.41
54850;BME280;47660;51.334;12.396;2023-06-14T10:07:41;100378.47;;;29.04;30.50
54850;BME280;47660;51.334;12.396;2023-06-14T10:10:11;100381.31;;;28.70;30.07
54850;BME280;47660;51.334;12.396;2023-06-14T10:12:39;100387.00;;;28.16;31.02
54850;BME280;47660;51.334;12.396;2023-06-14T10:15:07;100381.09;;;29.56;29.48
54850;BME280;47660;51.334;12.396;2023-06-14T10:17:44;100385.53;;;28.73;30.36
54850;BME280;47660;51.334;12.396;2023-06-14T10:23:16;100393.22;;;29.35;29.58
54850;BME280;47660;51.334;12.396;2023-06-14T10:25:43;100384.09;;;28.64;29.82
54850;BME280;47660;51.334;12.396;2023-06-14T10:28:19;100385.22;;;29.65;29.16
54850;BME280;47660;51.334;12.396;2023-06-14T10:31:13;100376.69;;;30.06;29.09
54850;BME280;47660;51.334;12.396;2023-06-14T10:33:39;100385.81;;;28.58;30.81
54850;BME280;47660;51.334;12.396;2023-06-14T10:36:29;100379.63;;;29.22;30.81
54850;BME280;47660;51.334;12.396;2023-06-14T10:39:16;100372.44;;;29.59;30.32
54850;BME280;47660;51.334;12.396;2023-06-14T10:41:57;100376.69;;;28.78;31.56
54850;BME280;47660;51.334;12.396;2023-06-14T10:46:57;100373.66;;;29.38;30.91
54850;BME280;47660;51.334;12.396;2023-06-14T10:49:44;100377.31;;;28.80;31.21
54850;BME280;47660;51.334;12.396;2023-06-14T10:52:12;100376.28;;;28.81;31.07
54850;BME280;47660;51.334;12.396;2023-06-14T10:57:46;100384.13;;;29.92;29.49
54850;BME280;47660;51.334;12.396;2023-06-14T11:00:13;100382.66;;;28.61;30.86
54850;BME280;47660;51.334;12.396;2023-06-14T11:10:41;100377.94;;;27.96;32.34
54850;BME280;47660;51.334;12.396;2023-06-14T11:13:07;100368.44;;;28.39;31.80
54850;BME280;47660;51.334;12.396;2023-06-14T11:15:37;100369.50;;;29.22;30.88
54850;BME280;47660;51.334;12.396;2023-06-14T11:18:05;100367.56;;;29.29;31.11
54850;BME280;47660;51.334;12.396;2023-06-14T11:20:32;100368.47;;;28.84;31.96
54850;BME280;47660;51.334;12.396;2023-06-14T11:22:58;100364.72;;;28.72;31.19
54850;BME280;47660;51.334;12.396;2023-06-14T11:25:26;100357.94;;;28.88;31.45
54850;BME280;47660;51.334;12.396;2023-06-14T11:27:53;100356.63;;;28.90;31.31
54850;BME280;47660;51.334;12.396;2023-06-14T11:30:19;100341.75;;;29.94;30.23
54850;BME280;47660;51.334;12.396;2023-06-14T11:32:52;100335.31;;;30.63;29.79
54850;BME280;47660;51.334;12.396;2023-06-14T11:35:19;100344.97;;;29.41;31.14
54850;BME280;47660;51.334;12.396;2023-06-14T11:37:48;100339.28;;;29.10;31.21
54850;BME280;47660;51.334;12.396;2023-06-14T11:40:14;100328.72;;;29.46;33.75
54850;BME280;47660;51.334;12.396;2023-06-14T11:42:43;100339.06;;;29.12;32.03
54850;BME280;47660;51.334;12.396;2023-06-14T11:45:10;100336.22;;;29.57;30.91
54850;BME280;47660;51.334;12.396;2023-06-14T11:47:39;100340.97;;;30.31;30.76
54850;BME280;47660;51.334;12.396;2023-06-14T11:50:09;100335.44;;;29.94;30.23
54850;BME280;47660;51.334;12.396;2023-06-14T11:52:41;100335.91;;;29.40;30.60
54850;BME280;47660;51.334;12.396;2023-06-14T11:55:07;100339.09;;;29.05;31.38
54850;BME280;47660;51.334;12.396;2023-06-14T11:57:36;100330.53;;;30.21;30.80
54850;BME280;47660;51.334;12.396;2023-06-14T12:00:06;100331.09;;;29.86;30.14
54850;BME280;47660;51.334;12.396;2023-06-14T12:02:43;100328.91;;;29.70;30.62
54850;BME280;47660;51.334;12.396;2023-06-14T12:05:20;100331.16;;;30.05;30.74
54850;BME280;47660;51.334;12.396;2023-06-14T12:07:46;100325.28;;;29.76;29.85
54850;BME280;47660;51.334;12.396;2023-06-14T12:10:16;100321.75;;;31.11;28.35
54850;BME280;47660;51.334;12.396;2023-06-14T12:12:42;100326.66;;;30.11;29.85
54850;BME280;47660;51.334;12.396;2023-06-14T12:15:10;100321.53;;;30.33;30.45
54850;BME280;47660;51.334;12.396;2023-06-14T12:17:39;100319.72;;;30.08;30.02
54850;BME280;47660;51.334;12.396;2023-06-14T12:20:09;100329.28;;;30.55;29.86
54850;BME280;47660;51.334;12.396;2023-06-14T12:22:57;100319.25;;;30.30;30.18
54850;BME280;47660;51.334;12.396;2023-06-14T12:25:35;100311.25;;;31.08;26.93
54850;BME280;47660;51.334;12.396;2023-06-14T12:28:09;100314.75;;;30.85;28.14
54850;BME280;47660;51.334;12.396;2023-06-14T12:30:35;100316.03;;;29.96;29.38
54850;BME280;47660;51.334;12.396;2023-06-14T12:33:02;100313.59;;;29.87;29.75
54850;BME280;47660;51.334;12.396;2023-06-14T12:35:31;100322.19;;;29.47;31.24
54850;BME280;47660;51.334;12.396;2023-06-14T12:37:58;100327.16;;;28.54;32.37
54850;BME280;47660;51.334;12.396;2023-06-14T12:40:24;100321.53;;;28.87;31.69
54850;BME280;47660;51.334;12.396;2023-06-14T12:42:50;100323.81;;;29.23;31.70
54850;BME280;47660;51.334;12.396;2023-06-14T12:45:17;100313.41;;;30.07;31.35
54850;BME280;47660;51.334;12.396;2023-06-14T12:47:43;100319.84;;;30.13;31.02
54850;BME280;47660;51.334;12.396;2023-06-14T12:50:08;100315.97;;;29.58;32.17
54850;BME280;47660;51.334;12.396;2023-06-14T12:52:34;100322.59;;;30.13;31.80
54850;BME280;47660;51.334;12.396;2023-06-14T12:55:03;100324.69;;;29.92;31.75
54850;BME280;47660;51.334;12.396;2023-06-14T12:57:31;100320.06;;;29.49;32.54
54850;BME280;47660;51.334;12.396;2023-06-14T12:59:59;100323.47;;;29.12;32.99
54850;BME280;47660;51.334;12.396;2023-06-14T13:02:28;100333.31;;;28.88;33.40
54850;BME280;47660;51.334;12.396;2023-06-14T13:04:58;100329.59;;;29.65;32.68